Time;durP1;ratioP1;P1;durP2;ratioP2;P2;SDS_P1;SDS_P2;PMS_P1;PMS_P2;Temp;Humidity;BMP_temperature;BMP_pressure;BME280_temperature;BME280_humidity;BME280_pressure;Samples;Min_cycle;Max_cycle;Signal;HPM_P1;HPM_P2
2024/04/11 00:01:39;;;;;;;14.43;6.63;;;13.60;99.90;;;;;;5487065;26;20346;-76
2024/04/11 00:04:05;;;;;;;18.88;6.75;;;13.50;99.90;;;;;;5487309;26;20127;-74
2024/04/11 00:06:31;;;;;;;;;;;13.50;99.90;;;;;;5485921;26;20050;-74
2024/04/11 00:08:57;;;;;;;13.73;5.65;;;13.40;99.90;;;;;;5484974;26;19923;-74
2024/04/11 00:11:22;;;;;;;;;;;13.30;99.90;;;;;;5487522;26;20423;-75
2024/04/11 00:13:49;;;;;;;16.38;6.38;;;13.20;99.90;;;;;;5487012;26;19923;-75
2024/04/11 00:16:14;;;;;;;8.38;6.28;;;13.20;99.90;;;;;;5484929;26;19994;-75
2024/04/11 00:18:40;;;;;;;;;;;13.10;99.90;;;;;;5487540;26;20008;-75
2024/04/11 00:21:06;;;;;;;12.20;6.35;;;13.10;99.90;;;;;;5486728;26;20246;-75
2024/04/11 00:23:31;;;;;;;7.78;5.63;;;13.00;99.90;;;;;;5484817;26;19998;-74
2024/04/11 00:25:58;;;;;;;;;;;13.00;99.90;;;;;;5485464;26;20005;-76
2024/04/11 00:28:27;;;;;;;13.98;6.25;;;12.90;99.90;;;;;;5484738;26;20255;-75
2024/04/11 00:30:54;;;;;;;9.82;5.93;;;12.80;99.90;;;;;;5484391;26;20070;-75
2024/04/11 00:33:20;;;;;;;8.95;5.70;;;12.80;99.90;;;;;;5486605;26;20009;-75
2024/04/11 00:35:49;;;;;;;;;;;12.80;99.90;;;;;;5485670;26;19998;-75
2024/04/11 00:38:23;;;;;;;8.98;5.95;;;12.70;99.90;;;;;;5486622;26;19924;-75
2024/04/11 00:40:56;;;;;;;9.73;6.55;;;12.70;99.90;;;;;;5486501;26;20009;-74
2024/04/11 00:43:32;;;;;;;8.88;6.00;;;12.70;99.90;;;;;;5484501;26;20006;-75
2024/04/11 00:45:58;;;;;;;15.05;5.78;;;12.70;99.90;;;;;;5484553;26;20009;-73
2024/04/11 00:48:25;;;;;;;10.73;5.85;;;12.70;99.90;;;;;;5484548;26;20335;-74
2024/04/11 00:50:52;;;;;;;9.73;6.15;;;12.60;99.90;;;;;;5484417;26;19998;-75
2024/04/11 00:53:21;;;;;;;10.98;5.78;;;12.60;99.90;;;;;;5486079;26;20095;-74
2024/04/11 00:55:47;;;;;;;9.20;6.60;;;12.60;99.90;;;;;;5484305;26;20043;-74
2024/04/11 00:58:13;;;;;;;;;;;12.60;99.90;;;;;;5486895;26;19994;-75
2024/04/11 01:00:42;;;;;;;14.85;6.05;;;12.50;99.90;;;;;;5483149;26;19931;-73
2024/04/11 01:03:08;;;;;;;15.05;6.75;;;12.50;99.90;;;;;;5485967;26;20546;-73
2024/04/11 01:05:34;;;;;;;12.30;6.75;;;12.50;99.90;;;;;;5483855;26;19998;-74
2024/04/11 01:08:06;;;;;;;10.70;5.80;;;12.40;99.90;;;;;;5485932;26;20078;-73
2024/04/11 01:10:37;;;;;;;10.25;5.07;;;12.40;99.90;;;;;;5485780;26;20018;-75
2024/04/11 01:13:05;;;;;;;8.15;5.40;;;12.40;99.90;;;;;;5485475;26;19994;-75
2024/04/11 01:15:33;;;;;;;12.30;6.07;;;12.30;99.90;;;;;;5484028;26;20009;-75
2024/04/11 01:17:59;;;;;;;10.15;6.05;;;12.30;99.90;;;;;;5483657;26;20010;-74
2024/04/11 01:20:26;;;;;;;14.68;6.70;;;12.30;99.90;;;;;;5483752;26;20074;-75
2024/04/11 01:22:52;;;;;;;12.88;7.22;;;12.30;99.90;;;;;;5483536;26;19998;-74
2024/04/11 01:25:18;;;;;;;;;;;12.30;99.90;;;;;;5484331;26;19998;-75
2024/04/11 01:27:44;;;;;;;15.93;7.18;;;12.20;99.90;;;;;;5483741;26;19923;-74
2024/04/11 01:30:13;;;;;;;11.60;6.82;;;12.20;99.90;;;;;;5485311;26;20013;-75
2024/04/11 01:32:39;;;;;;;9.70;6.05;;;12.10;99.90;;;;;;5483638;26;20013;-73
2024/04/11 01:35:05;;;;;;;;;;;12.10;99.90;;;;;;5484433;26;20002;-75
2024/04/11 01:37:31;;;;;;;11.35;6.80;;;12.00;99.90;;;;;;5485607;26;19924;-74
2024/04/11 01:39:57;;;;;;;9.88;6.75;;;12.00;99.90;;;;;;5485571;26;20526;-74
2024/04/11 01:42:23;;;;;;;;;;;12.00;99.90;;;;;;5485483;26;20002;-73
2024/04/11 01:44:49;;;;;;;11.90;7.35;;;12.00;99.90;;;;;;5485202;26;19923;-74
2024/04/11 01:47:15;;;;;;;10.45;7.13;;;11.90;99.90;;;;;;5483531;26;20002;-73
2024/04/11 01:49:41;;;;;;;;;;;11.90;99.90;;;;;;5483761;26;20017;-74
2024/04/11 01:52:09;;;;;;;16.63;8.35;;;11.80;99.90;;;;;;5483079;26;19924;-74
2024/04/11 01:54:42;;;;;;;13.75;7.45;;;11.80;99.90;;;;;;5482843;26;20017;-74
2024/04/11 01:57:10;;;;;;;15.35;7.60;;;11.90;99.90;;;;;;5485052;26;20069;-74
2024/04/11 01:59:36;;;;;;;10.90;7.55;;;11.90;99.90;;;;;;5484741;26;19998;-74
2024/04/11 02:02:02;;;;;;;;;;;11.80;99.90;;;;;;5485333;26;20069;-74
2024/04/11 02:04:30;;;;;;;9.52;7.47;;;11.90;99.90;;;;;;5482946;26;19923;-73
2024/04/11 02:06:57;;;;;;;10.68;6.97;;;11.80;99.90;;;;;;5484779;26;19999;-74
2024/04/11 02:09:26;;;;;;;9.95;7.45;;;11.80;99.90;;;;;;5482843;26;20002;-73
2024/04/11 02:11:57;;;;;;;12.43;8.23;;;11.80;99.90;;;;;;5483554;26;20526;-75
2024/04/11 02:14:23;;;;;;;11.73;7.68;;;11.80;99.90;;;;;;5488462;26;20022;-74
2024/04/11 02:16:50;;;;;;;;;;;11.80;99.90;;;;;;5487700;26;20013;-73
2024/04/11 02:19:16;;;;;;;16.17;9.23;;;11.80;99.90;;;;;;5488662;26;19923;-75
2024/04/11 02:21:43;;;;;;;11.68;7.95;;;11.80;99.90;;;;;;5486429;26;20002;-74
2024/04/11 02:24:11;;;;;;;12.13;8.13;;;11.80;99.90;;;;;;5488914;26;20006;-74
2024/04/11 02:26:37;;;;;;;11.15;8.18;;;11.80;99.90;;;;;;5488624;26;20009;-74
2024/04/11 02:29:03;;;;;;;;;;;11.70;99.90;;;;;;5487209;26;20006;-74
2024/04/11 02:31:30;;;;;;;17.90;8.43;;;11.70;99.90;;;;;;5487752;26;20420;-74
2024/04/11 02:33:59;;;;;;;16.92;9.07;;;11.70;99.90;;;;;;5487637;26;20228;-74
2024/04/11 02:36:30;;;;;;;17.17;8.32;;;11.70;99.90;;;;;;5488024;26;19998;-75
2024/04/11 02:38:57;;;;;;;14.48;8.95;;;11.70;99.90;;;;;;5487784;26;19994;-75
2024/04/11 02:41:23;;;;;;;16.90;8.80;;;11.70;99.90;;;;;;5486006;26;20002;-76
2024/04/11 02:43:48;;;;;;;;;;;11.70;99.90;;;;;;5486506;26;20001;-75
2024/04/11 02:46:17;;;;;;;19.60;8.90;;;11.70;99.90;;;;;;5486005;26;19924;-75
2024/04/11 02:48:44;;;;;;;15.40;9.02;;;11.70;99.90;;;;;;5486224;26;19997;-76
2024/04/11 02:51:11;;;;;;;14.02;9.85;;;11.60;99.90;;;;;;5487515;26;19998;-75
2024/04/11 02:53:40;;;;;;;13.95;9.55;;;11.60;99.90;;;;;;5487785;26;19998;-76
2024/04/11 02:56:09;;;;;;;13.90;8.90;;;11.60;99.90;;;;;;5487753;26;20437;-74
2024/04/11 02:58:38;;;;;;;15.05;9.85;;;11.60;99.90;;;;;;5487167;26;20073;-75
2024/04/11 03:01:09;;;;;;;20.50;8.50;;;11.60;99.90;;;;;;5485589;26;20034;-75
2024/04/11 03:03:36;;;;;;;13.43;8.43;;;11.60;99.90;;;;;;5485799;26;20022;-75
2024/04/11 03:06:12;;;;;;;13.45;8.98;;;11.50;99.90;;;;;;5487740;26;20082;-75
2024/04/11 03:08:41;;;;;;;21.45;10.50;;;11.50;99.90;;;;;;5485461;26;19998;-74
2024/04/11 03:11:11;;;;;;;14.02;8.63;;;11.50;99.90;;;;;;5485743;26;20316;-75
2024/04/11 03:13:40;;;;;;;18.88;9.23;;;11.50;99.90;;;;;;5485854;26;19998;-74
2024/04/11 03:16:11;;;;;;;13.23;9.55;;;11.40;99.90;;;;;;5487761;26;19995;-75
2024/04/11 03:18:39;;;;;;;12.57;9.77;;;11.40;99.90;;;;;;5487749;26;19998;-73
2024/04/11 03:21:05;;;;;;;21.95;9.93;;;11.40;99.90;;;;;;5485494;26;20002;-75
2024/04/11 03:23:32;;;;;;;14.43;9.77;;;11.40;99.90;;;;;;5484995;26;19998;-74
2024/04/11 03:25:58;;;;;;;16.10;9.55;;;11.40;99.90;;;;;;5485594;26;19997;-74
2024/04/11 03:28:26;;;;;;;14.90;9.93;;;11.40;99.90;;;;;;5487521;26;20004;-75
2024/04/11 03:31:04;;;;;;;16.55;9.70;;;11.40;99.90;;;;;;5485305;26;20070;-75
2024/04/11 03:33:34;;;;;;;14.18;8.93;;;11.40;99.90;;;;;;5487275;26;20443;-74
2024/04/11 03:36:01;;;;;;;14.93;9.38;;;11.40;99.90;;;;;;5485490;26;20002;-73
2024/04/11 03:38:28;;;;;;;11.65;8.98;;;11.40;99.90;;;;;;5487284;26;20435;-74
2024/04/11 03:41:10;;;;;;;15.75;9.25;;;11.30;99.90;;;;;;5485268;26;20445;-75
2024/04/11 03:43:37;;;;;;;25.85;11.05;;;11.30;99.90;;;;;;5485647;26;20470;-75
2024/04/11 03:46:18;;;;;;;14.52;9.15;;;11.30;99.90;;;;;;5487640;26;20010;-74
2024/04/11 03:48:46;;;;;;;16.40;9.43;;;11.30;99.90;;;;;;5485106;26;19998;-74
2024/04/11 03:51:15;;;;;;;22.40;10.20;;;11.30;99.90;;;;;;5486685;26;20009;-74
2024/04/11 03:53:45;;;;;;;14.90;9.32;;;11.30;99.90;;;;;;5485480;26;20070;-75
2024/04/11 03:56:14;;;;;;;18.83;10.18;;;11.30;99.90;;;;;;5486918;26;20024;-74
2024/04/11 03:58:41;;;;;;;15.70;9.93;;;11.30;99.90;;;;;;5487548;26;20026;-74
2024/04/11 04:01:14;;;;;;;19.42;9.55;;;11.30;99.90;;;;;;5486747;26;19998;-74
2024/04/11 04:03:44;;;;;;;14.27;9.13;;;11.30;99.90;;;;;;5486735;26;20016;-75
2024/04/11 04:06:12;;;;;;;13.05;8.63;;;11.30;99.90;;;;;;5486947;26;20075;-74
2024/04/11 04:08:40;;;;;;;12.27;8.80;;;11.30;99.90;;;;;;5485075;26;20012;-74
2024/04/11 04:11:06;;;;;;;12.25;8.20;;;11.30;99.90;;;;;;5486813;26;20446;-74
2024/04/11 04:13:32;;;;;;;;;;;11.40;99.90;;;;;;5485488;26;20009;-73
2024/04/11 04:15:58;;;;;;;15.52;9.60;;;11.50;99.90;;;;;;5484911;26;19924;-75
2024/04/11 04:18:25;;;;;;;;;;;11.40;99.90;;;;;;5485457;26;20462;-75
2024/04/11 04:20:54;;;;;;;12.77;9.02;;;11.50;99.90;;;;;;5486442;26;20439;-74
2024/04/11 04:23:21;;;;;;;14.95;8.77;;;11.50;99.90;;;;;;5486615;26;20013;-75
2024/04/11 04:25:59;;;;;;;15.38;9.07;;;11.60;99.90;;;;;;5484471;26;20447;-75
2024/04/11 04:28:32;;;;;;;12.70;8.38;;;11.70;99.90;;;;;;5484499;26;20725;-75
2024/04/11 04:31:17;;;;;;;15.43;8.93;;;11.70;99.90;;;;;;5485874;26;19994;-75
2024/04/11 04:33:50;;;;;;;12.18;7.90;;;11.80;99.90;;;;;;5484449;26;20008;-75
2024/04/11 04:36:25;;;;;;;16.40;8.23;;;11.90;99.90;;;;;;5484767;26;20030;-75
2024/04/11 04:38:53;;;;;;;10.95;7.43;;;12.00;99.90;;;;;;5484348;26;20320;-74
2024/04/11 04:41:20;;;;;;;14.85;8.32;;;12.10;99.90;;;;;;5484159;26;19998;-75
2024/04/11 04:43:54;;;;;;;16.10;7.10;;;12.10;99.90;;;;;;5484284;26;20002;-74
2024/04/11 04:46:25;;;;;;;11.65;7.72;;;12.30;99.90;;;;;;5484187;26;19998;-74
2024/04/11 04:48:52;;;;;;;11.68;7.85;;;12.30;99.90;;;;;;5484335;26;20079;-75
2024/04/11 04:51:19;;;;;;;17.58;7.32;;;12.50;99.90;;;;;;5483822;26;20013;-74
2024/04/11 04:53:46;;;;;;;11.35;7.00;;;12.50;99.90;;;;;;5484247;26;20030;-75
2024/04/11 04:56:12;;;;;;;10.23;6.53;;;12.70;99.90;;;;;;5483947;26;20024;-77
2024/04/11 04:58:42;;;;;;;13.85;6.93;;;12.80;99.90;;;;;;5484114;26;20013;-74
2024/04/11 05:01:08;;;;;;;10.75;6.13;;;13.00;99.90;;;;;;5484119;26;20002;-74
2024/04/11 05:03:38;;;;;;;;;;;13.30;99.90;;;;;;5486789;26;20009;-75
2024/04/11 05:06:07;;;;;;;11.50;6.05;;;13.50;99.90;;;;;;5485555;26;19987;-74
2024/04/11 05:08:33;;;;;;;10.32;6.28;;;13.80;99.90;;;;;;5483860;26;20001;-74
2024/04/11 05:11:00;;;;;;;25.60;6.07;;;14.10;99.90;;;;;;5483391;26;20026;-74
2024/04/11 05:13:29;;;;;;;15.32;5.93;;;14.20;99.90;;;;;;5483712;26;20446;-74
2024/04/11 05:16:06;;;;;;;16.08;6.05;;;14.60;99.90;;;;;;5483575;26;20001;-74
2024/04/11 05:18:41;;;;;;;12.95;5.85;;;15.10;99.90;;;;;;5485679;26;19994;-75
2024/04/11 05:21:08;;;;;;;11.43;4.47;;;15.60;99.90;;;;;;5485392;26;20455;-74
2024/04/11 05:23:36;;;;;;;10.45;5.43;;;16.00;99.90;;;;;;5483861;26;20002;-74
2024/04/11 05:26:07;;;;;;;7.47;4.57;;;16.50;99.90;;;;;;5483578;26;20052;-74
2024/04/11 05:28:35;;;;;;;17.33;5.13;;;17.20;99.90;;;;;;5485535;26;20032;-74
2024/04/11 05:31:04;;;;;;;9.48;4.50;;;17.90;99.90;;;;;;5483395;26;20055;-74
2024/04/11 05:33:36;;;;;;;19.67;5.00;;;18.50;99.90;;;;;;5485660;26;20017;-74
2024/04/11 05:36:02;;;;;;;9.23;4.35;;;19.20;99.90;;;;;;5483877;26;19994;-73
2024/04/11 05:38:28;;;;;;;13.52;5.03;;;20.10;98.50;;;;;;5485274;26;19998;-73
2024/04/11 05:40:53;;;;;;;8.57;4.60;;;20.60;95.00;;;;;;5485343;26;19995;-75
2024/04/11 05:43:21;;;;;;;9.70;3.75;;;20.80;92.30;;;;;;5483480;26;19998;-75
2024/04/11 05:45:47;;;;;;;12.60;4.63;;;21.20;91.10;;;;;;5485251;26;20006;-74
2024/04/11 05:48:13;;;;;;;8.73;5.18;;;21.80;88.10;;;;;;5486095;26;19998;-75
2024/04/11 05:50:39;;;;;;;10.45;4.90;;;22.30;81.10;;;;;;5488133;26;20002;-75
2024/04/11 05:53:08;;;;;;;12.43;4.35;;;22.80;76.80;;;;;;5486945;26;19998;-74
2024/04/11 05:55:34;;;;;;;5.93;4.47;;;23.00;73.10;;;;;;5486737;26;19994;-74
2024/04/11 05:58:00;;;;;;;6.45;3.80;;;23.40;70.70;;;;;;5486820;26;20013;-74
2024/04/11 06:00:29;;;;;;;9.57;4.82;;;23.80;68.60;;;;;;5488602;26;20016;-76
2024/04/11 06:02:55;;;;;;;7.97;4.25;;;24.10;66.00;;;;;;5486551;26;20394;-73
2024/04/11 06:05:22;;;;;;;10.13;4.70;;;24.00;64.10;;;;;;5488313;26;19998;-75
2024/04/11 06:07:50;;;;;;;12.05;4.13;;;23.90;64.10;;;;;;5488876;26;20005;-75
2024/04/11 06:10:20;;;;;;;15.85;5.22;;;23.80;64.10;;;;;;5486435;26;19999;-75
2024/04/11 06:12:46;;;;;;;7.47;3.85;;;23.80;63.80;;;;;;5486506;26;20318;-75
2024/04/11 06:15:13;;;;;;;9.55;4.70;;;24.00;63.60;;;;;;5488475;26;19998;-75
2024/04/11 06:17:41;;;;;;;8.45;4.00;;;24.00;61.90;;;;;;5486725;26;20012;-75
2024/04/11 06:20:15;;;;;;;9.75;4.18;;;24.20;61.00;;;;;;5488597;26;20009;-75
2024/04/11 06:22:43;;;;;;;22.52;5.65;;;24.40;60.00;;;;;;5488138;26;20026;-75
2024/04/11 06:25:11;;;;;;;14.73;5.25;;;24.30;60.00;;;;;;5486413;26;20042;-74
2024/04/11 06:27:36;;;;;;;16.23;4.40;;;24.30;59.20;;;;;;5488290;26;20006;-75
2024/04/11 06:30:02;;;;;;;13.88;4.32;;;24.40;58.70;;;;;;5487597;26;19998;-75
2024/04/11 06:32:31;;;;;;;7.30;4.72;;;24.50;58.30;;;;;;5488294;26;19998;-75
2024/04/11 06:34:56;;;;;;;12.50;4.82;;;24.80;57.90;;;;;;5488485;26;20534;-74
2024/04/11 06:37:24;;;;;;;14.15;4.70;;;24.70;56.30;;;;;;5488012;26;20009;-76
2024/04/11 06:39:50;;;;;;;41.95;5.50;;;24.60;57.10;;;;;;5479153;26;20006;-75
2024/04/11 06:42:17;;;;;;;12.07;4.70;;;24.80;58.00;;;;;;5486146;26;20017;-76
2024/04/11 06:44:48;;;;;;;9.13;4.22;;;25.10;55.60;;;;;;5488028;26;20009;-75
2024/04/11 06:47:15;;;;;;;14.90;4.25;;;25.10;54.10;;;;;;5488020;26;20659;-74
2024/04/11 06:49:42;;;;;;;6.43;4.38;;;24.90;55.30;;;;;;5487427;26;20454;-75
2024/04/11 06:52:14;;;;;;;10.95;4.78;;;24.90;55.90;;;;;;5487463;26;19998;-75
2024/04/11 06:54:43;;;;;;;11.68;4.75;;;25.10;55.70;;;;;;5487978;26;20017;-75
2024/04/11 06:57:11;;;;;;;8.88;4.70;;;25.40;54.40;;;;;;5487796;26;20002;-75
2024/04/11 06:59:37;;;;;;;10.18;4.90;;;25.60;52.90;;;;;;5486844;26;20088;-75
2024/04/11 07:02:07;;;;;;;11.25;5.20;;;25.60;52.30;;;;;;5487464;26;20010;-75
2024/04/11 07:04:33;;;;;;;10.55;4.63;;;25.90;52.30;;;;;;5485855;26;20409;-76
2024/04/11 07:07:00;;;;;;;13.88;4.45;;;25.70;52.80;;;;;;5487994;26;20142;-76
2024/04/11 07:09:37;;;;;;;11.27;4.90;;;25.90;52.70;;;;;;5486036;26;20073;-74
2024/04/11 07:12:10;;;;;;;12.77;4.70;;;26.30;51.20;;;;;;5487216;26;20002;-75
2024/04/11 07:14:40;;;;;;;15.13;4.60;;;26.50;50.20;;;;;;5487512;26;19998;-75
2024/04/11 07:17:11;;;;;;;10.25;4.28;;;26.50;49.40;;;;;;5485504;26;20010;-75
2024/04/11 07:19:42;;;;;;;8.90;4.30;;;26.60;49.80;;;;;;5487282;26;19998;-75
2024/04/11 07:22:09;;;;;;;11.13;4.15;;;26.80;48.70;;;;;;5485503;26;20008;-76
2024/04/11 07:24:37;;;;;;;6.65;4.00;;;26.90;47.90;;;;;;5487199;26;20002;-74
2024/04/11 07:27:11;;;;;;;10.65;3.75;;;27.20;46.90;;;;;;5485417;26;20010;-75
2024/04/11 07:29:38;;;;;;;10.75;4.10;;;27.50;47.40;;;;;;5485357;26;20459;-75
2024/04/11 07:32:05;;;;;;;10.43;4.97;;;27.70;47.10;;;;;;5485329;26;19998;-75
2024/04/11 07:34:31;;;;;;;9.57;4.30;;;27.90;45.90;;;;;;5487650;26;20050;-76
2024/04/11 07:36:56;;;;;;;12.48;4.03;;;28.40;45.30;;;;;;5485481;26;19998;-75
2024/04/11 07:39:22;;;;;;;9.85;5.00;;;28.60;44.80;;;;;;5485460;26;19998;-75
2024/04/11 07:42:00;;;;;;;13.23;4.25;;;28.60;43.80;;;;;;5487292;26;20005;-75
2024/04/11 07:44:25;;;;;;;8.02;4.55;;;28.90;43.00;;;;;;5487090;26;20072;-75
2024/04/11 07:46:53;;;;;;;9.98;4.00;;;29.00;43.00;;;;;;5487295;26;20009;-75
2024/04/11 07:49:19;;;;;;;6.20;3.15;;;29.30;42.20;;;;;;5485402;26;20009;-74
2024/04/11 07:51:45;;;;;;;13.85;4.47;;;29.70;41.60;;;;;;5486983;26;20576;-76
2024/04/11 07:54:15;;;;;;;12.82;4.07;;;29.80;40.80;;;;;;5487277;26;20013;-75
2024/04/11 07:56:41;;;;;;;9.93;3.67;;;30.00;39.40;;;;;;5485414;26;20342;-75
2024/04/11 07:59:11;;;;;;;8.27;4.07;;;30.30;39.30;;;;;;5485255;26;19998;-75
2024/04/11 08:01:37;;;;;;;9.32;4.00;;;30.70;39.20;;;;;;5485071;26;20035;-76
2024/04/11 08:04:05;;;;;;;13.10;4.03;;;30.80;38.60;;;;;;5487133;26;19998;-75
2024/04/11 08:06:32;;;;;;;12.43;4.78;;;30.80;38.30;;;;;;5487160;26;20442;-75
2024/04/11 08:08:59;;;;;;;20.00;4.97;;;31.20;37.10;;;;;;5486908;26;19998;-74
2024/04/11 08:11:30;;;;;;;10.95;4.30;;;31.30;36.60;;;;;;5484531;26;20454;-73
2024/04/11 08:13:57;;;;;;;16.40;4.63;;;31.30;37.20;;;;;;5485024;26;20034;-73
2024/04/11 08:16:23;;;;;;;9.93;4.32;;;31.50;36.90;;;;;;5486958;26;20070;-71
2024/04/11 08:18:49;;;;;;;9.85;3.70;;;31.40;36.70;;;;;;5486732;26;20455;-75
2024/04/11 08:21:16;;;;;;;8.57;3.38;;;31.50;36.10;;;;;;5486127;26;19998;-72
2024/04/11 08:23:45;;;;;;;14.65;4.65;;;31.40;35.50;;;;;;5486351;26;20012;-75
2024/04/11 08:26:15;;;;;;;8.38;3.92;;;31.60;36.00;;;;;;5485136;26;20013;-75
2024/04/11 08:28:43;;;;;;;13.82;4.55;;;31.80;36.40;;;;;;5486824;26;19998;-75
2024/04/11 08:31:09;;;;;;;7.47;3.65;;;31.80;36.20;;;;;;5484475;26;20404;-74
2024/04/11 08:33:36;;;;;;;11.48;4.40;;;31.80;35.80;;;;;;5486736;26;19998;-75
2024/04/11 08:36:09;;;;;;;11.40;3.97;;;31.70;34.80;;;;;;5484792;26;20346;-75
2024/04/11 08:38:36;;;;;;;6.68;3.30;;;31.50;34.60;;;;;;5484554;26;20432;-72
2024/04/11 08:41:15;;;;;;;7.68;3.70;;;31.20;35.30;;;;;;5484441;26;20487;-74
2024/04/11 08:43:45;;;;;;;6.70;2.95;;;31.10;36.30;;;;;;5486460;26;19998;-74
2024/04/11 08:46:11;;;;;;;6.80;3.20;;;31.20;36.40;;;;;;5486186;26;19998;-74
2024/04/11 08:48:38;;;;;;;12.45;3.55;;;31.40;35.70;;;;;;5484462;26;20074;-75
2024/04/11 08:51:21;;;;;;;10.80;3.45;;;31.30;35.10;;;;;;5485672;26;20468;-73
2024/04/11 08:53:48;;;;;;;7.47;3.13;;;31.30;34.70;;;;;;5485875;26;19998;-73
2024/04/11 08:56:16;;;;;;;10.90;3.58;;;31.30;34.50;;;;;;5486131;26;20437;-75
2024/04/11 08:58:47;;;;;;;7.20;3.65;;;31.00;35.00;;;;;;5485907;26;19998;-72
2024/04/11 09:01:16;;;;;;;17.55;4.03;;;30.60;35.90;;;;;;5485793;26;20013;-73
2024/04/11 09:03:46;;;;;;;11.65;3.30;;;30.70;36.00;;;;;;5483765;26;20002;-73
2024/04/11 09:06:13;;;;;;;19.00;3.83;;;30.20;35.90;;;;;;5485805;26;19998;-74
2024/04/11 09:08:40;;;;;;;7.88;3.30;;;30.00;37.70;;;;;;5485944;26;20002;-73
2024/04/11 09:11:06;;;;;;;16.08;3.58;;;30.00;38.10;;;;;;5483984;26;20002;-73
2024/04/11 09:13:32;;;;;;;11.27;3.92;;;30.10;38.40;;;;;;5485605;26;19998;-72
2024/04/11 09:16:04;;;;;;;7.90;3.30;;;30.20;35.90;;;;;;5485544;26;20049;-73
2024/04/11 09:18:30;;;;;;;8.98;3.38;;;29.80;37.30;;;;;;5485988;26;20002;-73
2024/04/11 09:21:05;;;;;;;9.20;3.25;;;29.60;38.00;;;;;;5485675;26;20075;-73
2024/04/11 09:23:51;;;;;;;11.90;3.50;;;29.90;38.80;;;;;;5483428;26;20006;-73
2024/04/11 09:26:17;;;;;;;6.65;2.83;;;30.10;38.40;;;;;;5485278;26;19999;-73
2024/04/11 09:28:43;;;;;;;9.00;3.28;;;30.40;38.30;;;;;;5484058;26;20005;-73
2024/04/11 09:31:11;;;;;;;7.38;3.60;;;30.30;37.30;;;;;;5485360;26;20070;-75
2024/04/11 09:33:41;;;;;;;8.00;3.47;;;30.50;37.90;;;;;;5485511;26;20095;-74
2024/04/11 09:36:11;;;;;;;10.13;3.85;;;30.60;37.70;;;;;;5483643;26;20002;-73
2024/04/11 09:38:36;;;;;;;10.60;2.65;;;30.60;36.50;;;;;;5483621;26;20013;-76
2024/04/11 09:41:11;;;;;;;14.05;3.30;;;30.60;37.60;;;;;;5484772;26;20791;-76
2024/04/11 09:43:41;;;;;;;9.25;2.97;;;31.00;36.70;;;;;;5485208;26;20013;-76
2024/04/11 09:46:08;;;;;;;8.38;3.60;;;30.80;35.90;;;;;;5485062;26;20013;-76
2024/04/11 09:48:38;;;;;;;12.95;3.22;;;30.90;36.90;;;;;;5476168;26;20665;-76
2024/04/11 09:51:10;;;;;;;10.57;3.60;;;30.80;36.70;;;;;;5484905;26;20116;-76
2024/04/11 09:53:36;;;;;;;11.43;3.40;;;30.90;36.90;;;;;;5483865;26;20039;-76
2024/04/11 09:56:08;;;;;;;8.68;2.42;;;30.80;36.50;;;;;;5485020;26;20654;-76
2024/04/11 09:58:38;;;;;;;12.40;2.85;;;31.30;36.70;;;;;;5485220;26;19998;-75
2024/04/11 10:01:16;;;;;;;7.13;2.55;;;31.70;35.30;;;;;;5484774;26;20033;-76
2024/04/11 10:03:41;;;;;;;10.55;3.28;;;31.90;35.20;;;;;;5482766;26;19998;-75
2024/04/11 10:06:16;;;;;;;9.82;3.08;;;31.80;35.50;;;;;;5484945;26;20013;-74
2024/04/11 10:08:48;;;;;;;7.40;2.45;;;31.60;34.70;;;;;;5484763;26;20041;-76
2024/04/11 10:11:17;;;;;;;9.15;2.47;;;31.50;35.40;;;;;;5484650;26;20002;-75
2024/04/11 10:13:45;;;;;;;6.75;2.45;;;31.70;35.30;;;;;;5484739;26;20002;-75
2024/04/11 10:16:53;;;;;;;17.77;3.78;;;32.00;34.30;;;;;;5484764;26;20002;-75
2024/04/11 10:19:22;;;;;;;15.35;3.08;;;32.10;34.20;;;;;;5480781;26;20475;-73
2024/04/11 10:21:49;;;;;;;9.45;3.20;;;32.30;33.60;;;;;;5482572;26;19998;-73
2024/04/11 10:24:17;;;;;;;8.05;3.15;;;32.10;32.80;;;;;;5484400;26;20042;-73
2024/04/11 10:26:54;;;;;;;11.15;2.63;;;31.90;33.00;;;;;;5484781;26;20002;-73
2024/04/11 10:29:22;;;;;;;8.00;2.83;;;32.10;34.10;;;;;;5482432;26;20010;-73
2024/04/11 10:31:52;;;;;;;7.05;2.58;;;32.00;33.20;;;;;;5482154;26;20002;-73
2024/04/11 10:34:25;;;;;;;7.70;2.90;;;31.70;34.60;;;;;;5485753;26;20131;-75
2024/04/11 10:37:02;;;;;;;12.30;3.35;;;31.30;35.30;;;;;;5486261;26;20048;-75
2024/04/11 10:39:35;;;;;;;14.02;3.13;;;30.80;36.20;;;;;;5488134;26;20002;-76
2024/04/11 10:42:07;;;;;;;7.68;3.22;;;30.30;36.30;;;;;;5488137;26;19998;-75
2024/04/11 10:44:45;;;;;;;10.45;3.63;;;29.70;37.30;;;;;;5488035;26;19994;-74
2024/04/11 10:47:13;;;;;;;15.98;2.90;;;29.10;37.50;;;;;;5488248;26;20024;-75
2024/04/11 10:49:45;;;;;;;9.73;2.50;;;28.60;39.20;;;;;;5487638;26;20010;-75
2024/04/11 10:52:11;;;;;;;25.25;3.35;;;28.20;41.10;;;;;;5487741;26;20075;-73
2024/04/11 10:54:42;;;;;;;13.95;3.13;;;27.80;41.20;;;;;;5487944;26;20036;-73
2024/04/11 10:57:12;;;;;;;8.82;2.40;;;27.60;41.50;;;;;;5488050;26;20445;-73
2024/04/11 10:59:53;;;;;;;12.25;2.63;;;27.50;41.40;;;;;;5488007;26;20447;-73
2024/04/11 11:02:22;;;;;;;11.68;2.85;;;27.20;41.70;;;;;;5487680;26;20462;-73
2024/04/11 11:04:50;;;;;;;11.55;3.47;;;26.90;42.50;;;;;;5487791;26;20008;-73
2024/04/11 11:07:23;;;;;;;15.77;3.55;;;26.80;43.40;;;;;;5486141;26;20002;-73
2024/04/11 11:09:51;;;;;;;9.82;2.67;;;26.80;42.60;;;;;;5487734;26;20013;-75
2024/04/11 11:12:23;;;;;;;9.13;3.25;;;26.60;42.40;;;;;;5485679;26;20431;-74
2024/04/11 11:14:53;;;;;;;7.93;3.05;;;26.30;43.70;;;;;;5485828;26;20345;-75
2024/04/11 11:17:18;;;;;;;6.93;2.65;;;26.20;43.60;;;;;;5487671;26;19998;-75
2024/04/11 11:19:49;;;;;;;15.90;3.15;;;26.10;43.80;;;;;;5485434;26;20017;-74
2024/04/11 11:22:33;;;;;;;5.13;2.50;;;26.00;45.90;;;;;;5487596;26;20009;-75
2024/04/11 11:25:00;;;;;;;6.55;2.30;;;26.10;45.60;;;;;;5485598;26;20014;-75
2024/04/11 11:27:31;;;;;;;5.65;2.45;;;26.10;45.80;;;;;;5487511;26;20006;-76
2024/04/11 11:29:57;;;;;;;12.18;2.65;;;26.00;46.10;;;;;;5487221;26;20017;-75
2024/04/11 11:32:25;;;;;;;13.18;2.92;;;26.10;45.70;;;;;;5487650;26;20002;-75
2024/04/11 11:34:52;;;;;;;8.55;2.80;;;26.10;45.70;;;;;;5487495;26;20026;-75
2024/04/11 11:37:21;;;;;;;9.98;2.45;;;26.10;45.90;;;;;;5487488;26;20002;-75
2024/04/11 11:39:55;;;;;;;9.82;2.78;;;26.20;46.10;;;;;;5487291;26;20012;-75
2024/04/11 11:42:26;;;;;;;18.17;3.25;;;26.20;45.70;;;;;;5485458;26;20077;-75
2024/04/11 11:47:33;;;;;;;7.30;2.72;;;26.20;46.10;;;;;;5487126;26;19998;-75
2024/04/11 11:50:10;;;;;;;14.48;2.38;;;26.10;46.50;;;;;;5485016;26;20010;-75
2024/04/11 11:52:43;;;;;;;13.80;3.97;;;26.20;45.80;;;;;;5485519;26;20443;-74
2024/04/11 11:55:16;;;;;;;12.95;2.83;;;26.20;47.00;;;;;;5486969;26;20006;-74
2024/04/11 11:58:03;;;;;;;12.48;2.47;;;26.10;46.00;;;;;;5486918;26;20033;-75
2024/04/11 12:00:32;;;;;;;;;;;26.10;46.40;;;;;;5485641;26;20002;-75
2024/04/11 12:03:11;;;;;;;11.18;2.50;;;26.00;46.50;;;;;;5486844;26;19930;-75
2024/04/11 12:05:39;;;;;;;9.35;3.15;;;26.00;47.20;;;;;;5486871;26;20029;-75
2024/04/11 12:08:06;;;;;;;10.02;2.55;;;26.10;47.10;;;;;;5486808;26;19998;-74
2024/04/11 12:13:42;;;;;;;7.47;2.28;;;26.10;46.20;;;;;;5486631;26;20368;-76
2024/04/11 12:16:08;;;;;;;9.63;3.08;;;26.10;46.50;;;;;;5486651;26;20002;-74
2024/04/11 12:18:34;;;;;;;10.70;2.78;;;26.00;46.90;;;;;;5486749;26;20422;-75
2024/04/11 12:21:02;;;;;;;5.85;2.22;;;26.10;47.20;;;;;;5486455;26;20002;-75
2024/04/11 12:23:28;;;;;;;6.63;2.35;;;26.10;46.90;;;;;;5486074;26;20002;-75
2024/04/11 12:25:57;;;;;;;10.52;2.47;;;25.90;46.20;;;;;;5486433;26;20034;-75
2024/04/11 12:28:27;;;;;;;6.03;2.15;;;26.00;46.20;;;;;;5484804;26;20363;-74
2024/04/11 12:30:59;;;;;;;18.25;2.53;;;26.00;45.70;;;;;;5484223;26;20012;-74
2024/04/11 12:33:31;;;;;;;8.70;2.28;;;26.00;45.80;;;;;;5484770;26;20443;-74
2024/04/11 12:35:59;;;;;;;4.47;1.95;;;25.90;45.60;;;;;;5486859;26;20076;-76
2024/04/11 12:38:29;;;;;;;9.45;2.45;;;25.90;46.10;;;;;;5486541;26;20078;-74
2024/04/11 12:40:58;;;;;;;8.20;2.47;;;25.90;46.00;;;;;;5484497;26;19998;-74
2024/04/11 12:43:28;;;;;;;9.55;2.63;;;26.00;46.00;;;;;;5486364;26;20025;-75
2024/04/11 12:45:55;;;;;;;12.02;2.38;;;26.00;45.30;;;;;;5486508;26;20004;-75
2024/04/11 12:48:25;;;;;;;8.15;1.90;;;25.90;45.00;;;;;;5484351;26;20005;-75
2024/04/11 12:50:54;;;;;;;9.15;2.20;;;25.90;44.30;;;;;;5484076;26;20102;-74
2024/04/11 12:53:25;;;;;;;7.57;2.30;;;25.90;44.90;;;;;;5484297;26;19998;-75
2024/04/11 12:55:58;;;;;;;6.60;2.40;;;25.90;47.30;;;;;;5484026;26;19994;-75
2024/04/11 12:58:26;;;;;;;10.27;2.28;;;26.00;46.10;;;;;;5483681;26;20004;-75
2024/04/11 13:00:58;;;;;;;13.68;1.88;;;26.00;46.00;;;;;;5485737;26;20001;-76